createdAt,value
2018-09-27T00:02:09.323Z,100018.61
2018-09-27T00:04:21.610Z,100025.69
2018-09-27T00:06:33.966Z,100025.30
2018-09-27T00:08:46.272Z,100028.02
2018-09-27T00:10:58.619Z,100020.31
2018-09-27T00:13:10.908Z,100021.56
2018-09-27T00:15:23.199Z,100021.62
2018-09-27T00:17:35.551Z,100021.67
2018-09-27T00:19:47.820Z,100024.35
2018-09-27T00:22:00.136Z,100025.36
2018-09-27T00:24:12.427Z,100017.59
2018-09-27T00:26:24.734Z,100019.39
2018-09-27T00:28:37.045Z,100016.00
2018-09-27T00:30:49.363Z,100021.56
2018-09-27T00:33:01.662Z,100021.52
2018-09-27T00:35:13.970Z,100018.45
2018-09-27T00:37:26.302Z,100018.80
2018-09-27T00:39:38.573Z,100017.50
2018-09-27T00:41:50.914Z,100018.88
2018-09-27T00:44:03.292Z,100016.25
2018-09-27T00:46:15.599Z,100014.96
2018-09-27T00:48:27.895Z,100021.03
2018-09-27T00:50:40.291Z,100012.08
2018-09-27T00:52:52.455Z,100012.58
2018-09-27T00:55:04.668Z,100009.55
2018-09-27T00:57:17.547Z,100004.47
2018-09-27T00:59:29.726Z,100001.53
2018-09-27T01:01:41.951Z,100003.33
2018-09-27T01:03:54.137Z,99996.12
2018-09-27T01:06:06.396Z,99992.28
2018-09-27T01:08:18.610Z,99991.39
2018-09-27T01:10:30.773Z,99990.95
2018-09-27T01:12:42.974Z,99992.23
2018-09-27T01:14:55.117Z,99991.34
2018-09-27T01:17:07.247Z,99989.59
2018-09-27T01:19:19.414Z,99992.94
2018-09-27T01:21:31.548Z,99987.72
2018-09-27T01:23:43.709Z,99984.67
2018-09-27T01:25:55.831Z,99986.68
2018-09-27T01:28:08.005Z,99982.30
2018-09-27T01:30:20.156Z,99988.27
2018-09-27T01:32:32.317Z,99988.75
2018-09-27T01:34:44.524Z,99977.02
2018-09-27T01:36:56.670Z,99985.63
2018-09-27T01:39:08.810Z,99985.18
2018-09-27T01:41:20.970Z,99987.02
2018-09-27T01:43:33.119Z,99975.63
2018-09-27T01:45:45.284Z,99976.58
2018-09-27T01:47:57.451Z,99976.53
2018-09-27T01:50:09.596Z,99972.16
2018-09-27T01:52:21.751Z,99976.03
2018-09-27T01:54:33.913Z,99975.64
2018-09-27T01:56:46.044Z,99973.64
2018-09-27T01:58:58.203Z,99981.89
2018-09-27T02:01:10.358Z,99974.15
2018-09-27T02:03:22.500Z,99975.58
2018-09-27T02:05:34.678Z,99976.08
2018-09-27T02:07:46.871Z,99971.89
2018-09-27T02:09:59.032Z,99967.31
2018-09-27T02:12:11.192Z,99962.98
2018-09-27T02:14:23.342Z,99964.68
2018-09-27T02:16:35.542Z,99960.06
2018-09-27T02:18:47.693Z,99963.98
2018-09-27T02:20:59.956Z,99957.88
2018-09-27T02:23:12.096Z,99962.59
2018-09-27T02:25:24.284Z,99962.54
2018-09-27T02:27:36.439Z,99957.42
2018-09-27T02:29:48.560Z,99955.78
2018-09-27T02:32:00.733Z,99952.93
2018-09-27T02:34:12.874Z,99948.75
2018-09-27T02:36:25.056Z,99943.14
2018-09-27T02:38:37.240Z,99939.22
2018-09-27T02:40:49.368Z,99926.71
2018-09-27T02:43:01.521Z,99926.26
2018-09-27T02:45:13.684Z,99932.67
2018-09-27T02:47:25.972Z,99921.59
2018-09-27T02:49:38.107Z,99919.00
2018-09-27T02:51:50.254Z,99918.13
2018-09-27T02:54:02.371Z,99918.13
2018-09-27T02:56:14.530Z,99911.66
2018-09-27T02:58:26.887Z,99918.13
2018-09-27T03:00:39.202Z,99906.94
2018-09-27T03:02:51.354Z,99905.16
2018-09-27T03:05:04.039Z,99911.52
2018-09-27T03:07:16.253Z,99904.17
2018-09-27T03:09:28.420Z,99900.35
2018-09-27T03:11:41.197Z,99901.64
2018-09-27T03:13:53.425Z,99895.17
2018-09-27T03:16:05.609Z,99902.43
2018-09-27T03:18:17.758Z,99901.19
2018-09-27T03:20:29.923Z,99893.48
2018-09-27T03:22:42.043Z,99891.31
2018-09-27T03:24:54.168Z,99886.23
2018-09-27T03:27:06.365Z,99895.23
2018-09-27T03:29:18.499Z,99892.80
2018-09-27T03:31:30.696Z,99893.23
2018-09-27T03:33:42.833Z,99899.28
2018-09-27T03:35:55.071Z,99891.59
2018-09-27T03:38:07.320Z,99885.66
2018-09-27T03:40:19.741Z,99890.89
2018-09-27T03:42:31.759Z,99898.53
2018-09-27T03:44:43.906Z,99898.84
2018-09-27T03:46:56.114Z,99903.51
2018-09-27T03:49:08.314Z,99902.17
2018-09-27T03:51:20.474Z,99909.47
2018-09-27T03:53:32.635Z,99906.80
2018-09-27T03:55:44.834Z,99908.94
2018-09-27T03:57:57.040Z,99902.88
2018-09-27T04:00:09.198Z,99896.78
2018-09-27T04:02:21.479Z,99888.58
2018-09-27T04:04:33.714Z,99887.82
2018-09-27T04:06:45.894Z,99884.45
2018-09-27T04:08:58.071Z,99885.97
2018-09-27T04:11:10.240Z,99880.16
2018-09-27T04:13:22.416Z,99879.45
2018-09-27T04:15:34.558Z,99877.80
2018-09-27T04:17:46.802Z,99876.38
2018-09-27T04:19:58.939Z,99872.14
2018-09-27T04:22:11.112Z,99871.61
2018-09-27T04:24:23.272Z,99865.52
2018-09-27T04:26:35.751Z,99860.21
2018-09-27T04:28:47.914Z,99855.44
2018-09-27T04:31:00.053Z,99854.95
2018-09-27T04:33:12.288Z,99855.59
2018-09-27T04:35:24.430Z,99848.28
2018-09-27T04:37:36.707Z,99850.33
2018-09-27T04:39:48.874Z,99848.63
2018-09-27T04:42:01.036Z,99852.97
2018-09-27T04:44:13.226Z,99852.95
2018-09-27T04:46:25.364Z,99849.13
2018-09-27T04:48:37.580Z,99841.83
2018-09-27T04:50:49.724Z,99845.62
2018-09-27T04:55:21.432Z,99838.94
2018-09-27T04:57:33.583Z,99839.34
2018-09-27T04:59:45.822Z,99846.30
2018-09-27T05:01:57.963Z,99848.03
2018-09-27T05:04:10.144Z,99850.17
2018-09-27T05:06:22.337Z,99851.86
2018-09-27T05:08:34.503Z,99847.94
2018-09-27T05:10:46.736Z,99851.36
2018-09-27T05:12:58.881Z,99847.03
2018-09-27T05:15:11.071Z,99848.63
2018-09-27T05:17:23.210Z,99849.36
2018-09-27T05:19:35.425Z,99853.86
2018-09-27T05:21:47.572Z,99853.26
2018-09-27T05:23:59.726Z,99852.73
2018-09-27T05:26:11.880Z,99857.42
2018-09-27T05:28:24.044Z,99857.85
2018-09-27T05:30:36.283Z,99860.38
2018-09-27T05:32:48.435Z,99862.06
2018-09-27T05:35:00.628Z,99857.79
2018-09-27T05:37:12.845Z,99861.56
2018-09-27T05:39:25.062Z,99858.91
2018-09-27T05:41:37.167Z,99857.30
2018-09-27T05:43:49.359Z,99858.31
2018-09-27T05:46:01.543Z,99853.63
2018-09-27T05:48:13.691Z,99855.38
2018-09-27T05:50:25.825Z,99851.45
2018-09-27T05:52:38.442Z,99848.80
2018-09-27T05:54:50.681Z,99848.36
2018-09-27T05:57:02.863Z,99852.12
2018-09-27T05:59:14.994Z,99855.16
2018-09-27T06:01:27.180Z,99851.23
2018-09-27T06:03:39.411Z,99852.41
2018-09-27T06:05:51.621Z,99844.97
2018-09-27T06:08:03.810Z,99845.31
2018-09-27T06:10:15.971Z,99843.11
2018-09-27T06:12:28.188Z,99849.46
2018-09-27T06:14:40.337Z,99843.65
2018-09-27T06:16:52.478Z,99846.78
2018-09-27T06:19:04.727Z,99842.28
2018-09-27T06:21:16.885Z,99833.02
2018-09-27T06:23:29.063Z,99830.64
2018-09-27T06:25:41.256Z,99829.13
2018-09-27T06:27:53.417Z,99831.52
2018-09-27T06:30:05.600Z,99835.98
2018-09-27T06:32:17.786Z,99839.96
2018-09-27T06:34:29.959Z,99840.02
2018-09-27T06:36:42.127Z,99844.47
2018-09-27T06:38:54.304Z,99850.77
2018-09-27T06:41:06.454Z,99844.91
2018-09-27T06:43:19.259Z,99841.81
2018-09-27T06:45:31.420Z,99846.19
2018-09-27T06:47:43.598Z,99846.80
2018-09-27T06:49:55.759Z,99841.86
2018-09-27T06:52:07.935Z,99846.73
2018-09-27T06:54:20.076Z,99841.25
2018-09-27T06:56:32.339Z,99840.14
2018-09-27T06:58:44.476Z,99838.15
2018-09-27T07:00:56.819Z,99833.92
2018-09-27T07:03:08.947Z,99837.70
2018-09-27T07:05:21.106Z,99824.08
2018-09-27T07:07:33.340Z,99838.23
2018-09-27T07:09:45.552Z,99833.29
2018-09-27T07:11:57.806Z,99837.05
2018-09-27T07:14:10.615Z,99832.25
2018-09-27T07:16:22.806Z,99831.14
2018-09-27T07:18:34.970Z,99829.53
2018-09-27T07:20:47.200Z,99826.92
2018-09-27T07:22:59.415Z,99823.45
2018-09-27T07:25:11.658Z,99814.63
2018-09-27T07:27:23.790Z,99818.47
2018-09-27T07:29:35.927Z,99811.98
2018-09-27T07:31:48.091Z,99809.38
2018-09-27T07:34:00.258Z,99808.71
2018-09-27T07:36:12.459Z,99805.07
2018-09-27T07:38:24.636Z,99805.05
2018-09-27T07:40:36.803Z,99801.00
2018-09-27T07:42:48.982Z,99799.78
2018-09-27T07:45:01.116Z,99800.89
2018-09-27T07:47:13.259Z,99798.21
2018-09-27T07:49:25.391Z,99795.61
2018-09-27T07:51:37.560Z,99792.64
2018-09-27T07:53:49.703Z,99788.81
2018-09-27T07:56:02.364Z,99787.14
2018-09-27T07:58:14.554Z,99788.81
2018-09-27T08:00:26.691Z,99778.68
2018-09-27T08:02:38.922Z,99783.83
2018-09-27T08:04:51.119Z,99782.96
2018-09-27T08:07:03.350Z,99787.52
2018-09-27T08:09:15.501Z,99790.73
2018-09-27T08:11:27.709Z,99788.24
2018-09-27T08:13:39.935Z,99786.69
2018-09-27T08:15:52.077Z,99785.19
2018-09-27T08:18:04.299Z,99785.03
2018-09-27T08:20:16.494Z,99784.27
2018-09-27T08:22:28.639Z,99782.94
2018-09-27T08:24:40.795Z,99781.50
2018-09-27T08:26:52.980Z,99784.77
2018-09-27T08:29:05.510Z,99785.20
2018-09-27T08:31:17.766Z,99785.03
2018-09-27T08:33:29.824Z,99783.89
2018-09-27T08:35:41.995Z,99780.87
2018-09-27T08:37:54.210Z,99786.05
2018-09-27T08:40:06.470Z,99775.88
2018-09-27T08:42:18.652Z,99778.80
2018-09-27T08:44:30.970Z,99769.81
2018-09-27T08:46:43.071Z,99767.16
2018-09-27T08:48:55.316Z,99763.19
2018-09-27T08:51:07.499Z,99756.33
2018-09-27T08:53:19.721Z,99761.17
2018-09-27T08:55:32.045Z,99754.11
2018-09-27T08:57:44.344Z,99755.18
2018-09-27T08:59:56.477Z,99745.08
2018-09-27T09:02:08.768Z,99743.88
2018-09-27T09:04:20.985Z,99743.55
2018-09-27T09:06:33.235Z,99740.18
2018-09-27T09:08:45.419Z,99736.09
2018-09-27T09:10:57.672Z,99735.64
2018-09-27T09:13:09.886Z,99732.30
2018-09-27T09:15:22.141Z,99725.19
2018-09-27T09:17:34.356Z,99724.92
2018-09-27T09:19:46.587Z,99723.23
2018-09-27T09:21:58.769Z,99715.98
2018-09-27T09:24:11.001Z,99715.60
2018-09-27T09:26:23.262Z,99711.24
2018-09-27T09:28:35.497Z,99706.05
2018-09-27T09:30:47.723Z,99709.82
2018-09-27T09:32:59.938Z,99707.47
2018-09-27T09:35:12.134Z,99706.53
2018-09-27T09:37:24.453Z,99705.34
2018-09-27T09:39:36.680Z,99701.24
2018-09-27T09:41:48.882Z,99703.54
2018-09-27T09:44:01.086Z,99702.67
2018-09-27T09:46:13.359Z,99699.63
2018-09-27T09:48:25.544Z,99693.38
2018-09-27T09:50:37.774Z,99692.74
2018-09-27T09:52:50.045Z,99689.65
2018-09-27T09:55:02.252Z,99688.13
2018-09-27T09:57:14.463Z,99685.48
2018-09-27T09:59:26.675Z,99684.61
2018-09-27T10:01:38.910Z,99680.84
2018-09-27T10:03:51.222Z,99679.84
2018-09-27T10:06:03.511Z,99677.32
2018-09-27T10:10:27.391Z,99672.05
2018-09-27T10:14:51.247Z,99661.88
2018-09-27T10:17:03.495Z,99655.12
2018-09-27T10:19:15.702Z,99649.64
2018-09-27T10:21:27.945Z,99647.77
2018-09-27T10:23:40.190Z,99646.91
2018-09-27T10:25:52.439Z,99646.91
2018-09-27T10:28:04.711Z,99642.22
2018-09-27T10:30:16.886Z,99639.89
2018-09-27T10:32:29.108Z,99635.17
2018-09-27T10:34:41.597Z,99631.61
2018-09-27T10:36:53.754Z,99629.23
2018-09-27T10:39:07.703Z,99627.84
2018-09-27T10:41:19.878Z,99629.59
2018-09-27T10:43:32.120Z,99620.89
2018-09-27T10:45:44.326Z,99623.53
2018-09-27T10:47:56.639Z,99618.27
2018-09-27T10:50:08.822Z,99615.09
2018-09-27T10:52:21.049Z,99617.17
2018-09-27T10:54:33.262Z,99610.48
2018-09-27T10:56:45.491Z,99610.18
2018-09-27T10:58:57.761Z,99602.98
2018-09-27T11:01:10.005Z,99605.11
2018-09-27T11:03:22.336Z,99603.66
2018-09-27T11:05:34.747Z,99601.40
2018-09-27T11:07:46.963Z,99596.66
2018-09-27T11:09:59.203Z,99604.98
2018-09-27T11:12:11.420Z,99594.46
2018-09-27T11:14:23.735Z,99594.80
2018-09-27T11:16:35.925Z,99587.69
2018-09-27T11:18:48.155Z,99578.48
2018-09-27T11:21:00.346Z,99574.51
2018-09-27T11:23:12.667Z,99571.93
2018-09-27T11:25:24.944Z,99565.09
2018-09-27T11:27:37.213Z,99565.96
2018-09-27T11:29:54.938Z,99557.30
2018-09-27T11:32:12.927Z,99554.70
2018-09-27T11:34:26.180Z,99550.61
2018-09-27T11:36:38.433Z,99552.00
2018-09-27T11:38:50.663Z,99546.29
2018-09-27T11:41:02.911Z,99544.80
2018-09-27T11:43:15.111Z,99536.30
2018-09-27T11:45:27.323Z,99531.91
2018-09-27T11:47:39.558Z,99530.09
2018-09-27T11:49:51.774Z,99529.25
2018-09-27T11:52:03.996Z,99533.16
2018-09-27T11:54:16.220Z,99532.33
2018-09-27T11:56:28.535Z,99529.95
2018-09-27T11:58:40.778Z,99524.65
2018-09-27T12:00:53.168Z,99514.55
2018-09-27T12:03:05.385Z,99510.91
2018-09-27T12:05:17.605Z,99502.19
2018-09-27T12:07:29.891Z,99496.34
2018-09-27T12:09:42.079Z,99491.59
2018-09-27T12:11:54.494Z,99490.77
2018-09-27T12:14:07.082Z,99487.67
2018-09-27T12:16:19.348Z,99485.18
2018-09-27T12:18:31.671Z,99480.80
2018-09-27T12:20:43.927Z,99477.78
2018-09-27T12:22:56.152Z,99473.96
2018-09-27T12:25:08.344Z,99472.48
2018-09-27T12:27:20.592Z,99468.88
2018-09-27T12:29:32.824Z,99459.05
2018-09-27T12:31:45.186Z,99454.02
2018-09-27T12:33:57.489Z,99450.17
2018-09-27T12:36:09.694Z,99441.55
2018-09-27T12:38:21.934Z,99433.88
2018-09-27T12:40:34.169Z,99440.16
2018-09-27T12:42:46.443Z,99435.69
2018-09-27T12:44:58.586Z,99439.44
2018-09-27T12:47:10.827Z,99431.77
2018-09-27T12:49:23.043Z,99427.45
2018-09-27T12:51:35.296Z,99423.15
2018-09-27T12:53:47.527Z,99423.33
2018-09-27T12:55:59.738Z,99417.42
2018-09-27T12:58:12.024Z,99413.51
2018-09-27T13:00:24.240Z,99414.00
2018-09-27T13:02:36.556Z,99405.34
2018-09-27T13:04:48.798Z,99404.73
2018-09-27T13:07:01.068Z,99399.70
2018-09-27T13:09:13.385Z,99397.89
2018-09-27T13:11:25.521Z,99396.22
2018-09-27T13:13:37.734Z,99386.13
2018-09-27T13:15:49.970Z,99380.33
2018-09-27T13:18:02.176Z,99381.00
2018-09-27T13:20:14.426Z,99367.08
2018-09-27T13:22:26.616Z,99371.27
2018-09-27T13:24:38.891Z,99363.17
2018-09-27T13:26:51.142Z,99360.30
2018-09-27T13:29:03.387Z,99355.84
2018-09-27T13:31:15.756Z,99358.15
2018-09-27T13:33:27.977Z,99349.98
2018-09-27T13:35:40.196Z,99348.20
2018-09-27T13:37:52.425Z,99339.83
2018-09-27T13:40:04.804Z,99335.52
2018-09-27T13:42:16.972Z,99329.72
2018-09-27T13:44:29.196Z,99333.26
2018-09-27T13:46:41.429Z,99327.47
2018-09-27T13:48:53.792Z,99324.64
2018-09-27T13:51:06.062Z,99325.31
2018-09-27T13:53:18.299Z,99318.79
2018-09-27T13:55:30.508Z,99318.42
2018-09-27T13:57:42.761Z,99316.48
2018-09-27T13:59:55.038Z,99318.30
2018-09-27T14:02:07.303Z,99309.46
2018-09-27T14:04:19.613Z,99307.27
2018-09-27T14:06:31.845Z,99304.01
2018-09-27T14:08:44.054Z,99297.72
2018-09-27T14:10:56.319Z,99301.85
2018-09-27T14:13:08.562Z,99299.54
2018-09-27T14:15:20.774Z,99295.91
2018-09-27T14:17:33.080Z,99289.94
2018-09-27T14:19:45.260Z,99285.41
2018-09-27T14:21:57.495Z,99279.56
2018-09-27T14:24:09.743Z,99281.84
2018-09-27T14:26:21.936Z,99279.02
2018-09-27T14:28:34.170Z,99273.89
2018-09-27T14:30:46.477Z,99275.13
2018-09-27T14:32:58.694Z,99274.40
2018-09-27T14:35:10.924Z,99272.52
2018-09-27T14:37:23.131Z,99269.78
2018-09-27T14:39:35.358Z,99262.70
2018-09-27T14:41:47.673Z,99262.15
2018-09-27T14:43:59.789Z,99259.97
2018-09-27T14:46:12.004Z,99257.31
2018-09-27T14:48:24.211Z,99254.48
2018-09-27T14:50:36.425Z,99247.50
2018-09-27T14:52:48.690Z,99246.05
2018-09-27T14:55:01.029Z,99242.80
2018-09-27T14:57:13.138Z,99235.69
2018-09-27T14:59:25.393Z,99237.77
2018-09-27T15:01:37.623Z,99237.77
2018-09-27T15:03:49.924Z,99235.28
2018-09-27T15:06:02.143Z,99234.67
2018-09-27T15:08:14.361Z,99234.67
2018-09-27T15:10:26.679Z,99230.89
2018-09-27T15:12:38.810Z,99225.88
2018-09-27T15:14:51.044Z,99228.73
2018-09-27T15:17:03.280Z,99227.06
2018-09-27T15:19:15.510Z,99223.72
2018-09-27T15:21:27.759Z,99221.50
2018-09-27T15:23:40.058Z,99215.09
2018-09-27T15:25:52.223Z,99212.52
2018-09-27T15:28:04.459Z,99216.35
2018-09-27T15:30:16.718Z,99203.74
2018-09-27T15:32:29.012Z,99201.03
2018-09-27T15:34:41.336Z,99209.85
2018-09-27T15:36:53.527Z,99207.20
2018-09-27T15:39:06.662Z,99197.95
2018-09-27T15:41:18.922Z,99194.03
2018-09-27T15:43:31.129Z,99188.61
2018-09-27T15:45:43.491Z,99188.40
2018-09-27T15:47:55.646Z,99184.21
2018-09-27T15:50:07.920Z,99187.98
2018-09-27T15:52:20.178Z,99185.61
2018-09-27T15:54:32.398Z,99178.94
2018-09-27T15:56:44.691Z,99179.40
2018-09-27T15:58:56.903Z,99178.08
2018-09-27T16:01:09.228Z,99176.19
2018-09-27T16:03:21.450Z,99172.53
2018-09-27T16:05:33.821Z,99164.38
2018-09-27T16:07:46.110Z,99164.09
2018-09-27T16:09:58.371Z,99161.30
2018-09-27T16:12:10.614Z,99159.54
2018-09-27T16:14:22.811Z,99158.14
2018-09-27T16:16:35.131Z,99154.45
2018-09-27T16:18:47.339Z,99150.91
2018-09-27T16:20:59.507Z,99149.33
2018-09-27T16:23:11.819Z,99145.94
2018-09-27T16:25:24.058Z,99140.27
2018-09-27T16:27:36.287Z,99144.56
2018-09-27T16:29:48.527Z,99138.48
2018-09-27T16:32:00.800Z,99144.56
2018-09-27T16:34:13.028Z,99137.20
2018-09-27T16:36:25.285Z,99134.80
2018-09-27T16:38:37.901Z,99147.05
2018-09-27T16:40:50.129Z,99140.50
2018-09-27T16:43:02.467Z,99138.38
2018-09-27T16:45:14.724Z,99137.85
2018-09-27T16:47:27.008Z,99135.20
2018-09-27T16:49:39.241Z,99136.58
2018-09-27T16:51:51.487Z,99138.41
2018-09-27T16:54:04.107Z,99135.42
2018-09-27T16:56:16.382Z,99140.79
2018-09-27T16:58:28.699Z,99136.94
2018-09-27T17:00:40.920Z,99132.70
2018-09-27T17:02:53.492Z,99132.03
2018-09-27T17:05:05.760Z,99133.27
2018-09-27T17:07:18.032Z,99129.84
2018-09-27T17:09:30.276Z,99129.84
2018-09-27T17:11:42.553Z,99132.75
2018-09-27T17:13:54.789Z,99133.23
2018-09-27T17:16:07.116Z,99137.45
2018-09-27T17:18:19.338Z,99142.63
2018-09-27T17:20:31.606Z,99142.98
2018-09-27T17:22:43.939Z,99138.06
2018-09-27T17:24:56.067Z,99140.56
2018-09-27T17:27:08.291Z,99143.64
2018-09-27T17:29:20.556Z,99142.80
2018-09-27T17:31:32.797Z,99146.11
2018-09-27T17:33:45.100Z,99135.93
2018-09-27T17:35:57.340Z,99134.38
2018-09-27T17:38:09.621Z,99137.32
2018-09-27T17:40:21.924Z,99135.97
2018-09-27T17:42:34.138Z,99135.64
2018-09-27T17:44:46.388Z,99135.20
2018-09-27T17:46:58.656Z,99140.06
2018-09-27T17:49:10.921Z,99137.99
2018-09-27T17:51:23.216Z,99139.38
2018-09-27T17:53:35.667Z,99139.89
2018-09-27T17:55:47.973Z,99144.85
2018-09-27T17:58:00.212Z,99135.73
2018-09-27T18:00:12.457Z,99139.74
2018-09-27T18:02:24.816Z,99136.08
2018-09-27T18:04:37.066Z,99145.33
2018-09-27T18:06:49.372Z,99138.83
2018-09-27T18:09:01.635Z,99137.38
2018-09-27T18:11:13.924Z,99136.38
2018-09-27T18:13:26.175Z,99139.53
2018-09-27T18:15:38.403Z,99145.94
2018-09-27T18:17:50.687Z,99146.02
2018-09-27T18:20:02.966Z,99150.87
2018-09-27T18:22:15.315Z,99147.34
2018-09-27T18:24:27.634Z,99150.01
2018-09-27T18:26:39.940Z,99150.88
2018-09-27T18:28:52.267Z,99154.86
2018-09-27T18:31:04.621Z,99150.17
2018-09-27T18:33:17.210Z,99145.16
2018-09-27T18:35:29.439Z,99152.86
2018-09-27T18:37:41.894Z,99158.12
2018-09-27T18:39:53.974Z,99156.92
2018-09-27T18:42:06.252Z,99154.80
2018-09-27T18:44:18.531Z,99159.75
2018-09-27T18:46:30.771Z,99156.48
2018-09-27T18:48:43.134Z,99154.45
2018-09-27T18:50:55.389Z,99152.58
2018-09-27T18:53:07.602Z,99155.02
2018-09-27T18:55:19.899Z,99155.97
2018-09-27T18:57:32.261Z,99152.70
2018-09-27T18:59:44.517Z,99148.80
2018-09-27T19:01:56.786Z,99148.91
2018-09-27T19:04:09.073Z,99145.53
2018-09-27T19:06:21.349Z,99143.69
2018-09-27T19:08:33.619Z,99143.31
2018-09-27T19:10:45.923Z,99142.41
2018-09-27T19:12:58.222Z,99141.75
2018-09-27T19:15:10.480Z,99142.13
2018-09-27T19:17:22.783Z,99136.06
2018-09-27T19:19:35.084Z,99128.95
2018-09-27T19:21:47.334Z,99136.54
2018-09-27T19:23:59.606Z,99138.50
2018-09-27T19:26:11.888Z,99138.50
2018-09-27T19:28:24.162Z,99139.16
2018-09-27T19:30:36.451Z,99143.73
2018-09-27T19:32:48.723Z,99138.75
2018-09-27T19:35:00.930Z,99131.02
2018-09-27T19:37:13.174Z,99137.63
2018-09-27T19:39:25.414Z,99140.16
2018-09-27T19:41:37.989Z,99135.41
2018-09-27T19:43:50.247Z,99141.00
2018-09-27T19:46:02.543Z,99135.84
2018-09-27T19:48:14.869Z,99141.97
2018-09-27T19:50:27.182Z,99141.78
2018-09-27T19:52:39.449Z,99139.34
2018-09-27T19:54:51.713Z,99138.39
2018-09-27T19:57:03.988Z,99137.30
2018-09-27T19:59:16.255Z,99140.91
2018-09-27T20:01:28.587Z,99138.94
2018-09-27T20:03:40.795Z,99138.55
2018-09-27T20:05:53.060Z,99143.18
2018-09-27T20:08:05.357Z,99139.31
2018-09-27T20:10:17.638Z,99139.45
2018-09-27T20:12:29.943Z,99136.88
2018-09-27T20:14:42.206Z,99138.16
2018-09-27T20:16:54.495Z,99131.90
2018-09-27T20:19:07.066Z,99135.78
2018-09-27T20:21:19.337Z,99136.00
2018-09-27T20:23:31.571Z,99133.09
2018-09-27T20:25:43.811Z,99130.58
2018-09-27T20:27:56.048Z,99131.11
2018-09-27T20:30:08.330Z,99129.98
2018-09-27T20:32:20.546Z,99126.66
2018-09-27T20:34:32.827Z,99128.59
2018-09-27T20:36:44.994Z,99130.06
2018-09-27T20:38:57.435Z,99123.34
2018-09-27T20:41:09.658Z,99125.64
2018-09-27T20:43:21.920Z,99127.66
2018-09-27T20:45:34.188Z,99124.91
2018-09-27T20:47:46.763Z,99127.03
2018-09-27T20:49:58.963Z,99129.86
2018-09-27T20:52:11.256Z,99129.12
2018-09-27T20:54:23.561Z,99122.98
2018-09-27T20:56:35.793Z,99124.19
2018-09-27T20:58:48.007Z,99130.08
2018-09-27T21:01:00.199Z,99127.15
2018-09-27T21:03:12.481Z,99123.61
2018-09-27T21:05:24.611Z,99120.80
2018-09-27T21:07:36.893Z,99130.02
2018-09-27T21:09:49.080Z,99130.48
2018-09-27T21:12:01.343Z,99129.70
2018-09-27T21:14:13.574Z,99129.49
2018-09-27T21:16:25.841Z,99127.35
2018-09-27T21:18:37.994Z,99124.95
2018-09-27T21:20:50.168Z,99121.62
2018-09-27T21:23:02.400Z,99116.72
2018-09-27T21:25:14.571Z,99123.19
2018-09-27T21:27:26.815Z,99116.10
2018-09-27T21:29:39.031Z,99118.81
2018-09-27T21:31:51.348Z,99115.77
2018-09-27T21:34:03.571Z,99118.94
2018-09-27T21:36:15.793Z,99114.74
2018-09-27T21:38:28.131Z,99108.02
2018-09-27T21:40:40.319Z,99105.19
2018-09-27T21:42:52.507Z,99105.34
2018-09-27T21:45:04.710Z,99099.73
2018-09-27T21:47:16.902Z,99108.03
2018-09-27T21:49:29.066Z,99110.00
2018-09-27T21:51:41.255Z,99108.25
2018-09-27T21:53:53.551Z,99108.87
2018-09-27T21:56:05.751Z,99103.61
2018-09-27T21:58:17.937Z,99104.72
2018-09-27T22:00:30.108Z,99099.00
2018-09-27T22:02:42.281Z,99099.14
2018-09-27T22:04:54.615Z,99106.95
2018-09-27T22:07:06.817Z,99108.64
2018-09-27T22:09:19.035Z,99105.12
2018-09-27T22:11:31.199Z,99107.98
2018-09-27T22:13:43.412Z,99101.34
2018-09-27T22:15:55.620Z,99103.16
2018-09-27T22:18:07.821Z,99104.17
2018-09-27T22:20:20.003Z,99100.56
2018-09-27T22:22:32.208Z,99104.61
2018-09-27T22:24:44.676Z,99103.54
2018-09-27T22:26:56.863Z,99100.71
2018-09-27T22:29:09.091Z,99094.73
2018-09-27T22:31:21.228Z,99089.87
2018-09-27T22:33:33.503Z,99095.62
2018-09-27T22:35:45.675Z,99090.84
2018-09-27T22:37:57.891Z,99084.66
2018-09-27T22:40:10.079Z,99078.77
2018-09-27T22:42:22.247Z,99082.66
2018-09-27T22:44:34.454Z,99083.09
2018-09-27T22:46:46.687Z,99079.66
2018-09-27T22:48:58.855Z,99074.55
2018-09-27T22:51:11.056Z,99073.47
2018-09-27T22:53:23.263Z,99073.66
2018-09-27T22:55:35.410Z,99073.05
2018-09-27T22:57:47.580Z,99079.30
2018-09-27T22:59:59.774Z,99074.70
2018-09-27T23:02:11.931Z,99072.41
2018-09-27T23:04:24.118Z,99067.75
2018-09-27T23:06:36.299Z,99069.97
2018-09-27T23:08:48.494Z,99069.56
2018-09-27T23:11:00.706Z,99069.56
2018-09-27T23:13:12.869Z,99059.88
2018-09-27T23:15:25.106Z,99061.72
2018-09-27T23:17:37.272Z,99061.07
2018-09-27T23:19:49.417Z,99065.19
2018-09-27T23:22:01.601Z,99059.53
2018-09-27T23:24:13.782Z,99067.19
2018-09-27T23:26:26.329Z,99068.27
2018-09-27T23:28:38.622Z,99066.83
2018-09-27T23:30:50.775Z,99062.02
2018-09-27T23:33:02.946Z,99056.30
2018-09-27T23:35:15.133Z,99060.52
2018-09-27T23:37:27.295Z,99057.73
2018-09-27T23:39:39.537Z,99058.02
2018-09-27T23:41:51.714Z,99061.48
2018-09-27T23:44:03.903Z,99056.48
2018-09-27T23:46:16.099Z,99060.67
2018-09-27T23:48:28.323Z,99055.37
2018-09-27T23:50:40.533Z,99054.86
2018-09-27T23:52:52.783Z,99051.05
2018-09-27T23:55:04.988Z,99053.64
2018-09-27T23:57:17.218Z,99050.34
2018-09-27T23:59:29.438Z,99056.84
